Time;durP1;ratioP1;P1;durP2;ratioP2;P2;SDS_P1;SDS_P2;PMS_P1;PMS_P2;Temp;Humidity;BMP_temperature;BMP_pressure;BME280_temperature;BME280_humidity;BME280_pressure;Samples;Min_cycle;Max_cycle;Signal;HPM_P1;HPM_P2
2024/01/11 00:00:03;;;;;;;43.57;29.00;;;-6.20;99.90;;;;;;5095544;28;20179;-64
2024/01/11 00:02:29;;;;;;;46.03;30.93;;;-6.20;99.90;;;;;;5095004;28;20180;-64
2024/01/11 00:04:55;;;;;;;52.10;30.80;;;-6.20;99.90;;;;;;5095092;28;20169;-63
2024/01/11 00:07:20;;;;;;;48.97;30.87;;;-6.10;99.90;;;;;;5095792;28;20197;-64
2024/01/11 00:09:46;;;;;;;55.50;30.87;;;-6.20;99.90;;;;;;5095218;28;20185;-63
2024/01/11 00:12:12;;;;;;;47.90;30.33;;;-6.30;99.90;;;;;;5095293;28;20243;-63
2024/01/11 00:14:38;;;;;;;43.63;28.17;;;-6.20;99.90;;;;;;5095428;28;20184;-63
2024/01/11 00:17:03;;;;;;;38.47;28.67;;;-6.10;99.90;;;;;;5095031;28;20205;-63
2024/01/11 00:19:29;;;;;;;45.63;30.37;;;-6.00;99.90;;;;;;5094775;28;20177;-64
2024/01/11 00:21:55;;;;;;;46.13;29.57;;;-6.10;99.90;;;;;;5095584;28;20187;-63
2024/01/11 00:24:21;;;;;;;51.27;30.00;;;-6.20;99.90;;;;;;5094932;28;20675;-63
2024/01/11 00:26:46;;;;;;;42.47;29.77;;;-6.10;99.90;;;;;;5095051;28;20704;-63
2024/01/11 00:29:12;;;;;;;43.00;30.23;;;-6.10;99.90;;;;;;5095437;28;20181;-65
2024/01/11 00:31:38;;;;;;;41.93;27.27;;;-6.20;99.90;;;;;;5094662;28;20177;-63
2024/01/11 00:34:04;;;;;;;42.00;26.63;;;-6.30;99.90;;;;;;5094551;28;20165;-63
2024/01/11 00:36:30;;;;;;;45.20;28.23;;;-6.20;99.90;;;;;;5095123;28;20189;-63
2024/01/11 00:38:56;;;;;;;48.50;30.30;;;-6.10;99.90;;;;;;5094684;28;20177;-63
2024/01/11 00:41:22;;;;;;;45.67;30.07;;;-6.10;99.90;;;;;;5094843;28;20598;-64
2024/01/11 00:43:47;;;;;;;46.20;29.73;;;-6.10;99.90;;;;;;5094564;28;20181;-64
2024/01/11 00:46:13;;;;;;;44.63;28.40;;;-6.10;99.90;;;;;;5094416;28;20616;-63
2024/01/11 00:48:39;;;;;;;44.97;28.43;;;-6.20;99.90;;;;;;5094686;28;20177;-62
2024/01/11 00:51:05;;;;;;;47.67;28.97;;;-6.10;99.90;;;;;;5094330;28;20242;-63
2024/01/11 00:53:31;;;;;;;49.13;29.37;;;-6.20;99.90;;;;;;5094830;28;20201;-64
2024/01/11 00:56:00;;;;;;;44.43;29.03;;;-6.40;99.90;;;;;;5094671;28;20181;-64
2024/01/11 00:58:26;;;;;;;43.80;28.50;;;-6.40;99.90;;;;;;5094143;28;20215;-63
2024/01/11 01:00:53;;;;;;;44.90;29.23;;;-6.50;99.90;;;;;;5094291;28;20177;-63
2024/01/11 01:03:20;;;;;;;40.87;28.13;;;-6.50;99.90;;;;;;5094200;28;20185;-63
2024/01/11 01:05:46;;;;;;;41.73;28.63;;;-6.50;99.90;;;;;;5092637;28;20200;-63
2024/01/11 01:08:12;;;;;;;45.70;29.90;;;-6.50;99.90;;;;;;5094096;28;20219;-63
2024/01/11 01:10:38;;;;;;;41.73;26.97;;;-6.50;99.90;;;;;;5094425;28;20545;-64
2024/01/11 01:13:04;;;;;;;42.17;28.20;;;-6.60;99.90;;;;;;5093191;28;20284;-64
2024/01/11 01:15:29;;;;;;;42.63;27.83;;;-6.80;99.90;;;;;;5094239;28;20256;-63
2024/01/11 01:17:55;;;;;;;43.70;28.00;;;-6.80;99.90;;;;;;5094134;28;20205;-63
2024/01/11 01:20:22;;;;;;;43.50;28.53;;;-6.80;99.90;;;;;;5093829;28;20641;-63
2024/01/11 01:22:48;;;;;;;44.97;28.53;;;-6.90;99.90;;;;;;5093903;28;20181;-63
2024/01/11 01:25:13;;;;;;;46.47;28.73;;;-6.70;99.90;;;;;;5093928;28;20176;-63
2024/01/11 01:27:39;;;;;;;41.37;28.30;;;-6.60;99.90;;;;;;5093813;28;20567;-63
2024/01/11 01:30:06;;;;;;;48.80;28.93;;;-6.60;99.90;;;;;;5093762;28;20181;-63
2024/01/11 01:32:32;;;;;;;48.20;29.33;;;-6.60;99.90;;;;;;5093589;28;20193;-64
2024/01/11 01:34:58;;;;;;;44.70;28.97;;;-6.60;99.90;;;;;;5093656;28;20602;-63
2024/01/11 01:37:24;;;;;;;43.70;28.60;;;-6.60;99.90;;;;;;5093862;28;20189;-63
2024/01/11 01:39:50;;;;;;;35.83;28.33;;;-6.50;99.90;;;;;;5093970;28;20188;-63
2024/01/11 01:42:15;;;;;;;36.77;27.47;;;-6.60;99.90;;;;;;5093661;28;20189;-63
2024/01/11 01:44:41;;;;;;;38.87;28.93;;;-6.80;99.90;;;;;;5093625;28;20555;-63
2024/01/11 01:47:09;;;;;;;46.40;29.47;;;-6.80;99.90;;;;;;5093445;28;20250;-63
2024/01/11 01:49:36;;;;;;;45.67;27.57;;;-6.90;99.90;;;;;;5093139;28;20556;-64
2024/01/11 01:52:03;;;;;;;40.27;28.07;;;-6.90;99.90;;;;;;5093384;28;20295;-63
2024/01/11 01:54:29;;;;;;;43.73;27.40;;;-7.00;99.90;;;;;;5093373;28;20169;-63
2024/01/11 01:56:56;;;;;;;41.17;26.03;;;-7.00;99.90;;;;;;5093303;28;20193;-64
2024/01/11 01:59:24;;;;;;;43.90;27.73;;;-7.00;99.90;;;;;;5093538;28;20268;-64
2024/01/11 02:01:50;;;;;;;40.33;25.70;;;-6.90;99.90;;;;;;5093154;28;20528;-63
2024/01/11 02:04:16;;;;;;;39.20;27.00;;;-6.80;99.90;;;;;;5092897;28;20191;-63
2024/01/11 02:06:46;;;;;;;40.33;30.00;;;-6.70;99.90;;;;;;5093423;28;20197;-63
2024/01/11 02:09:13;;;;;;;40.43;28.97;;;-6.70;99.90;;;;;;5093277;28;20173;-63
2024/01/11 02:11:40;;;;;;;42.13;27.47;;;-6.70;99.90;;;;;;5093057;28;20268;-64
2024/01/11 02:14:07;;;;;;;40.57;27.57;;;-6.70;99.90;;;;;;5093138;28;20211;-64
2024/01/11 02:16:33;;;;;;;44.00;28.70;;;-6.70;99.90;;;;;;5092971;28;20212;-64
2024/01/11 02:18:59;;;;;;;39.17;27.03;;;-6.80;99.90;;;;;;5092827;28;20177;-62
2024/01/11 02:21:27;;;;;;;41.17;27.33;;;-6.90;99.90;;;;;;5093120;28;20169;-64
2024/01/11 02:24:04;;;;;;;42.40;29.87;;;-6.80;99.90;;;;;;5093225;28;20169;-64
2024/01/11 02:26:30;;;;;;;45.07;27.90;;;-6.80;99.90;;;;;;5097654;28;20192;-63
2024/01/11 02:28:56;;;;;;;39.87;24.80;;;-6.70;99.90;;;;;;5097191;28;20181;-63
2024/01/11 02:31:22;;;;;;;39.50;25.60;;;-6.70;99.90;;;;;;5097196;28;20177;-63
2024/01/11 02:33:48;;;;;;;36.80;27.63;;;-6.70;99.90;;;;;;5097384;28;20208;-63
2024/01/11 02:36:14;;;;;;;37.53;25.47;;;-6.90;99.90;;;;;;5096749;28;20630;-63
2024/01/11 02:38:42;;;;;;;46.10;27.27;;;-7.00;99.90;;;;;;5097147;28;20268;-64
2024/01/11 02:41:08;;;;;;;44.70;26.63;;;-6.90;99.90;;;;;;5096957;28;20234;-64
2024/01/11 02:43:37;;;;;;;50.50;29.83;;;-6.90;99.90;;;;;;5097511;28;20173;-63
2024/01/11 02:46:03;;;;;;;43.20;28.93;;;-7.00;99.90;;;;;;5097220;28;20169;-64
2024/01/11 02:48:30;;;;;;;46.17;27.57;;;-7.10;99.90;;;;;;5096889;28;20192;-63
2024/01/11 02:50:57;;;;;;;43.17;26.50;;;-7.20;99.90;;;;;;5096478;28;20216;-64
2024/01/11 02:53:23;;;;;;;44.47;29.93;;;-7.30;99.90;;;;;;5096907;28;20211;-63
2024/01/11 02:55:52;;;;;;;40.63;29.00;;;-7.30;99.90;;;;;;5096932;28;20165;-64
2024/01/11 02:58:18;;;;;;;37.93;25.13;;;-7.40;99.90;;;;;;5096523;28;20201;-63
2024/01/11 03:00:43;;;;;;;39.87;28.77;;;-7.40;99.90;;;;;;5096655;28;20173;-64
2024/01/11 03:03:09;;;;;;;39.57;26.73;;;-7.30;99.90;;;;;;5096818;28;20547;-64
2024/01/11 03:05:35;;;;;;;40.20;28.03;;;-7.20;99.90;;;;;;5096416;28;20157;-63
2024/01/11 03:08:00;;;;;;;37.77;26.73;;;-7.20;99.90;;;;;;5096481;28;20217;-63
2024/01/11 03:10:26;;;;;;;43.93;26.53;;;-7.20;99.90;;;;;;5096406;28;20293;-63
2024/01/11 03:12:52;;;;;;;45.13;28.63;;;-7.10;99.90;;;;;;5096830;28;20214;-63
2024/01/11 03:15:18;;;;;;;43.13;28.37;;;-7.10;99.90;;;;;;5096392;28;20180;-62
2024/01/11 03:17:43;;;;;;;41.80;26.87;;;-7.00;99.90;;;;;;5096277;28;20568;-63
2024/01/11 03:20:09;;;;;;;39.93;27.83;;;-7.00;99.90;;;;;;5096242;28;20564;-63
2024/01/11 03:22:35;;;;;;;37.50;27.43;;;-7.10;99.90;;;;;;5096121;28;20178;-63
2024/01/11 03:25:01;;;;;;;42.07;27.37;;;-7.30;99.90;;;;;;5096138;28;20188;-63
2024/01/11 03:27:26;;;;;;;37.73;27.67;;;-7.20;99.90;;;;;;5096350;28;20287;-63
2024/01/11 03:29:52;;;;;;;46.23;28.50;;;-7.10;99.90;;;;;;5095999;28;20177;-63
2024/01/11 03:32:19;;;;;;;40.27;27.37;;;-7.00;99.90;;;;;;5095862;28;20197;-64
2024/01/11 03:34:44;;;;;;;41.33;26.83;;;-7.00;99.90;;;;;;5096162;28;20196;-62
2024/01/11 03:37:10;;;;;;;48.07;27.90;;;-7.00;99.90;;;;;;5095517;28;20654;-63
2024/01/11 03:39:36;;;;;;;41.57;26.63;;;-7.20;99.90;;;;;;5095927;28;20173;-63
2024/01/11 03:42:03;;;;;;;40.43;28.10;;;-7.20;99.90;;;;;;5095791;28;20661;-63
2024/01/11 03:44:31;;;;;;;41.53;27.97;;;-7.30;99.90;;;;;;5095904;28;20180;-63
2024/01/11 03:46:56;;;;;;;41.43;29.20;;;-7.20;99.90;;;;;;5096305;28;20208;-63
2024/01/11 03:49:22;;;;;;;38.07;28.13;;;-7.40;99.90;;;;;;5095423;28;20179;-62
2024/01/11 03:51:48;;;;;;;45.10;28.07;;;-7.40;99.90;;;;;;5095644;28;20196;-63
2024/01/11 03:54:13;;;;;;;36.07;27.57;;;-7.50;99.90;;;;;;5095763;28;20596;-64
2024/01/11 03:56:39;;;;;;;42.80;28.10;;;-7.50;99.90;;;;;;5095547;28;20208;-63
2024/01/11 03:59:08;;;;;;;46.00;31.40;;;-7.60;99.90;;;;;;5095671;28;20183;-63
2024/01/11 04:01:38;;;;;;;40.40;27.60;;;-7.60;99.90;;;;;;5095627;28;20166;-63
2024/01/11 04:04:03;;;;;;;46.00;28.57;;;-7.40;99.90;;;;;;5095958;28;20173;-64
2024/01/11 04:06:29;;;;;;;41.03;28.67;;;-7.30;99.90;;;;;;5095041;28;20271;-63
2024/01/11 04:08:55;;;;;;;43.97;27.83;;;-7.30;99.90;;;;;;5095361;28;20642;-63
2024/01/11 04:11:21;;;;;;;46.50;29.97;;;-7.30;99.90;;;;;;5095179;28;20269;-63
2024/01/11 04:13:46;;;;;;;43.33;29.93;;;-7.40;99.90;;;;;;5095490;28;20292;-63
2024/01/11 04:16:12;;;;;;;41.97;29.17;;;-7.40;99.90;;;;;;5095091;28;20223;-63
2024/01/11 04:18:38;;;;;;;42.13;28.50;;;-7.30;99.90;;;;;;5095098;28;20262;-62
2024/01/11 04:21:04;;;;;;;33.90;27.90;;;-7.40;99.90;;;;;;5094728;28;20182;-63
2024/01/11 04:23:30;;;;;;;38.10;28.60;;;-7.40;99.90;;;;;;5095018;28;20222;-64
2024/01/11 04:25:56;;;;;;;41.67;28.03;;;-7.40;99.90;;;;;;5093780;28;20181;-63
2024/01/11 04:28:22;;;;;;;40.30;29.73;;;-7.40;99.90;;;;;;5094860;28;20254;-63
2024/01/11 04:30:47;;;;;;;47.50;29.67;;;-7.50;99.90;;;;;;5095467;28;20242;-63
2024/01/11 04:33:13;;;;;;;45.63;28.00;;;-7.50;99.90;;;;;;5094841;28;20266;-64
2024/01/11 04:35:39;;;;;;;36.37;27.30;;;-7.60;99.90;;;;;;5094848;28;20203;-63
2024/01/11 04:38:05;;;;;;;41.47;28.40;;;-7.60;99.90;;;;;;5094758;28;20204;-63
2024/01/11 04:40:31;;;;;;;38.10;27.27;;;-7.60;99.90;;;;;;5094633;28;20169;-64
2024/01/11 04:42:56;;;;;;;38.10;27.67;;;-7.60;99.90;;;;;;5094688;28;20252;-63
2024/01/11 04:45:22;;;;;;;41.23;28.03;;;-7.50;99.90;;;;;;5094955;28;20185;-63
2024/01/11 04:47:50;;;;;;;41.53;28.73;;;-7.50;99.90;;;;;;5094415;28;20201;-64
2024/01/11 04:50:16;;;;;;;43.90;29.67;;;-7.50;99.90;;;;;;5094111;28;20268;-63
2024/01/11 04:52:42;;;;;;;43.10;29.83;;;-7.40;99.90;;;;;;5094416;28;20338;-63
2024/01/11 04:55:08;;;;;;;40.43;26.93;;;-7.40;99.90;;;;;;5094496;28;20639;-63
2024/01/11 04:57:33;;;;;;;38.87;28.20;;;-7.40;99.90;;;;;;5094276;28;20705;-62
2024/01/11 04:59:59;;;;;;;40.13;28.67;;;-7.40;99.90;;;;;;5094838;28;20255;-63
2024/01/11 05:02:25;;;;;;;45.47;28.00;;;-7.40;99.90;;;;;;5094726;28;20633;-63
2024/01/11 05:04:51;;;;;;;40.43;28.10;;;-7.40;99.90;;;;;;5094130;28;20165;-63
2024/01/11 05:07:16;;;;;;;41.80;28.77;;;-7.50;99.90;;;;;;5094263;28;20201;-63
2024/01/11 05:09:42;;;;;;;40.97;27.77;;;-7.40;99.90;;;;;;5094939;28;20181;-63
2024/01/11 05:12:08;;;;;;;43.07;27.93;;;-7.50;99.90;;;;;;5094075;28;20250;-63
2024/01/11 05:14:34;;;;;;;39.60;27.60;;;-7.40;99.90;;;;;;5094617;28;20169;-63
2024/01/11 05:17:00;;;;;;;40.27;27.67;;;-7.50;99.90;;;;;;5094005;28;20242;-63
2024/01/11 05:19:26;;;;;;;47.40;28.17;;;-7.50;99.90;;;;;;5094386;28;20630;-62
2024/01/11 05:21:52;;;;;;;40.30;29.10;;;-7.50;99.90;;;;;;5093091;28;20230;-63
2024/01/11 05:24:17;;;;;;;39.33;26.83;;;-7.60;99.90;;;;;;5093916;28;20233;-63
2024/01/11 05:26:43;;;;;;;38.73;28.27;;;-7.70;99.90;;;;;;5093944;28;20193;-62
2024/01/11 05:29:09;;;;;;;40.87;27.50;;;-7.80;99.90;;;;;;5093761;28;20165;-63
2024/01/11 05:31:35;;;;;;;41.00;29.87;;;-7.80;99.90;;;;;;5093797;28;20638;-64
2024/01/11 05:34:01;;;;;;;45.63;28.93;;;-7.90;99.90;;;;;;5093827;28;20175;-64
2024/01/11 05:36:26;;;;;;;42.63;29.77;;;-8.00;99.90;;;;;;5093284;28;20197;-64
2024/01/11 05:38:52;;;;;;;40.87;29.67;;;-8.00;99.90;;;;;;5094052;28;20264;-63
2024/01/11 05:41:18;;;;;;;39.57;27.20;;;-8.00;99.90;;;;;;5093623;28;20244;-64
2024/01/11 05:43:44;;;;;;;39.70;27.97;;;-7.80;99.90;;;;;;5094175;28;20211;-63
2024/01/11 05:46:10;;;;;;;34.00;27.50;;;-7.80;99.90;;;;;;5094022;28;20187;-63
2024/01/11 05:48:35;;;;;;;41.03;29.37;;;-7.90;99.90;;;;;;5093753;28;20177;-63
2024/01/11 05:51:01;;;;;;;39.10;29.97;;;-8.00;99.90;;;;;;5091792;28;20228;-63
2024/01/11 05:53:27;;;;;;;47.23;29.20;;;-8.00;99.90;;;;;;5093351;28;20204;-63
2024/01/11 05:55:53;;;;;;;35.90;27.33;;;-8.00;99.90;;;;;;5093512;28;20173;-63
2024/01/11 05:58:19;;;;;;;44.73;30.90;;;-8.00;99.90;;;;;;5093273;28;20204;-63
2024/01/11 06:00:46;;;;;;;40.50;26.27;;;-7.90;99.90;;;;;;5092997;28;20174;-63
2024/01/11 06:03:12;;;;;;;44.20;28.27;;;-8.00;99.90;;;;;;5093656;28;20563;-63
2024/01/11 06:05:39;;;;;;;43.33;29.43;;;-7.90;99.90;;;;;;5092345;28;20562;-63
2024/01/11 06:08:05;;;;;;;36.47;27.37;;;-7.90;99.90;;;;;;5093336;28;20243;-63
2024/01/11 06:10:31;;;;;;;44.93;29.50;;;-8.00;99.90;;;;;;5093315;28;20220;-63
2024/01/11 06:12:57;;;;;;;41.80;29.70;;;-7.90;99.90;;;;;;5093280;28;20203;-63
2024/01/11 06:15:23;;;;;;;42.87;28.13;;;-8.00;99.90;;;;;;5093748;28;20246;-63
2024/01/11 06:17:48;;;;;;;45.23;30.20;;;-8.00;99.90;;;;;;5093238;28;20201;-63
2024/01/11 06:20:14;;;;;;;41.03;27.80;;;-7.90;99.90;;;;;;5093198;28;20173;-63
2024/01/11 06:22:40;;;;;;;43.60;28.30;;;-7.80;99.90;;;;;;5093213;28;20561;-63
2024/01/11 06:25:06;;;;;;;53.90;28.23;;;-7.80;99.90;;;;;;5093589;28;20238;-63
2024/01/11 06:27:32;;;;;;;41.00;27.97;;;-8.00;99.90;;;;;;5093025;28;20201;-62
2024/01/11 06:29:58;;;;;;;49.70;27.70;;;-7.90;99.90;;;;;;5093295;28;20177;-63
2024/01/11 06:32:24;;;;;;;42.03;28.17;;;-7.90;99.90;;;;;;5093016;28;20197;-63
2024/01/11 06:34:50;;;;;;;41.50;27.83;;;-7.80;99.90;;;;;;5092938;28;20252;-63
2024/01/11 06:37:16;;;;;;;39.67;27.87;;;-7.70;99.90;;;;;;5091966;28;20774;-63
2024/01/11 06:39:41;;;;;;;35.70;27.73;;;-7.60;99.90;;;;;;5093401;28;20177;-64
2024/01/11 06:42:07;;;;;;;39.37;28.07;;;-7.60;99.90;;;;;;5093084;28;20178;-64
2024/01/11 06:44:33;;;;;;;36.50;27.57;;;-7.60;99.90;;;;;;5093223;28;20178;-63
2024/01/11 06:47:01;;;;;;;36.93;28.53;;;-7.70;99.90;;;;;;5092859;28;20205;-63
2024/01/11 06:49:27;;;;;;;35.53;26.60;;;-7.90;99.90;;;;;;5093168;28;20212;-64
2024/01/11 06:51:53;;;;;;;41.97;27.17;;;-7.90;99.90;;;;;;5092365;28;20216;-64
2024/01/11 06:54:18;;;;;;;40.47;27.87;;;-7.80;99.90;;;;;;5091610;28;20170;-63
2024/01/11 06:56:44;;;;;;;48.00;30.87;;;-7.80;99.90;;;;;;5092744;28;20189;-63
2024/01/11 06:59:10;;;;;;;39.73;28.83;;;-7.80;99.90;;;;;;5092941;28;20169;-64
2024/01/11 07:01:36;;;;;;;34.03;26.17;;;-7.80;99.90;;;;;;5092808;28;20184;-63
2024/01/11 07:04:01;;;;;;;39.37;28.60;;;-7.90;99.90;;;;;;5092905;28;20181;-63
2024/01/11 07:06:27;;;;;;;40.00;30.23;;;-7.90;99.90;;;;;;5092366;28;20193;-63
2024/01/11 07:08:53;;;;;;;39.23;29.83;;;-7.80;99.90;;;;;;5092971;28;20169;-63
2024/01/11 07:11:19;;;;;;;45.17;29.30;;;-7.90;99.90;;;;;;5093540;28;20181;-63
2024/01/11 07:13:45;;;;;;;46.80;31.47;;;-8.00;99.90;;;;;;5097204;28;20214;-63
2024/01/11 07:16:10;;;;;;;50.23;29.40;;;-8.00;99.90;;;;;;5096238;28;20209;-64
2024/01/11 07:18:36;;;;;;;40.27;26.93;;;-8.00;99.90;;;;;;5096262;28;20181;-63
2024/01/11 07:21:02;;;;;;;44.90;27.83;;;-8.10;99.90;;;;;;5095923;28;20180;-63
2024/01/11 07:23:28;;;;;;;44.40;26.57;;;-8.10;99.90;;;;;;5096191;28;20216;-64
2024/01/11 07:25:53;;;;;;;43.33;29.97;;;-8.00;99.90;;;;;;5094802;28;20192;-63
2024/01/11 07:28:24;;;;;;;44.93;28.60;;;-7.90;99.90;;;;;;5095959;28;20204;-63
2024/01/11 07:30:51;;;;;;;38.83;28.40;;;-7.80;99.90;;;;;;5096094;28;20154;-63
2024/01/11 07:33:17;;;;;;;43.50;28.10;;;-7.90;99.90;;;;;;5096155;28;20208;-64
2024/01/11 07:35:42;;;;;;;38.03;29.73;;;-7.90;99.90;;;;;;5095923;28;20252;-63
2024/01/11 07:38:08;;;;;;;41.40;28.67;;;-7.90;99.90;;;;;;5096062;28;20197;-63
2024/01/11 07:40:34;;;;;;;38.10;28.20;;;-7.90;99.90;;;;;;5095823;28;20173;-63
2024/01/11 07:43:00;;;;;;;38.80;28.27;;;-7.80;99.90;;;;;;5095809;28;20258;-63
2024/01/11 07:45:25;;;;;;;47.20;29.27;;;-7.90;99.90;;;;;;5095715;28;20638;-64
2024/01/11 07:47:51;;;;;;;38.47;28.77;;;-7.90;99.90;;;;;;5095882;28;20260;-63
2024/01/11 07:50:18;;;;;;;42.20;28.03;;;-8.00;99.90;;;;;;5094114;28;20212;-63
2024/01/11 07:52:45;;;;;;;40.10;27.33;;;-8.10;99.90;;;;;;5094415;28;20572;-63
2024/01/11 07:55:12;;;;;;;41.73;28.00;;;-8.10;99.90;;;;;;5095644;28;20165;-64
2024/01/11 07:57:38;;;;;;;43.47;28.47;;;-8.00;99.90;;;;;;5095608;28;20193;-63
2024/01/11 08:00:07;;;;;;;40.93;27.20;;;-8.00;99.90;;;;;;5095594;28;20170;-64
2024/01/11 08:02:33;;;;;;;38.23;28.43;;;-8.00;99.90;;;;;;5094194;28;20612;-63
2024/01/11 08:05:02;;;;;;;48.93;28.33;;;-8.00;99.90;;;;;;5095047;28;20609;-63
2024/01/11 08:07:28;;;;;;;47.67;30.37;;;-7.90;99.90;;;;;;5094113;28;20208;-63
2024/01/11 08:09:54;;;;;;;55.00;34.80;;;-7.90;99.90;;;;;;5095236;28;20569;-63
2024/01/11 08:12:20;;;;;;;54.23;34.60;;;-7.80;99.90;;;;;;5095190;28;20255;-63
2024/01/11 08:14:46;;;;;;;52.87;31.80;;;-7.70;99.90;;;;;;5095299;28;20177;-64
2024/01/11 08:17:13;;;;;;;41.87;30.10;;;-7.60;99.90;;;;;;5095563;28;20674;-63
2024/01/11 08:19:39;;;;;;;48.13;30.93;;;-7.50;99.90;;;;;;5095214;28;20238;-63
2024/01/11 08:22:06;;;;;;;45.27;28.17;;;-7.50;99.90;;;;;;5094422;28;20166;-64
2024/01/11 08:24:34;;;;;;;40.33;30.27;;;-7.30;99.90;;;;;;5094965;28;20191;-64
2024/01/11 08:27:00;;;;;;;41.30;27.07;;;-7.20;99.90;;;;;;5094635;28;20185;-64
2024/01/11 08:29:26;;;;;;;43.77;29.57;;;-7.10;99.90;;;;;;5094723;28;20230;-63
2024/01/11 08:31:51;;;;;;;38.30;28.83;;;-7.10;99.90;;;;;;5094749;28;20218;-63
2024/01/11 08:34:17;;;;;;;44.87;27.80;;;-7.10;99.90;;;;;;5094755;28;20169;-63
2024/01/11 08:36:43;;;;;;;45.00;31.17;;;-7.10;99.90;;;;;;5094621;28;20276;-63
2024/01/11 08:39:11;;;;;;;42.20;30.83;;;-7.00;99.90;;;;;;5094606;28;20708;-63
2024/01/11 08:41:39;;;;;;;40.93;30.40;;;-6.90;99.90;;;;;;5093305;28;20571;-64
2024/01/11 08:44:05;;;;;;;45.50;30.67;;;-6.90;99.90;;;;;;5094791;28;20173;-64
2024/01/11 08:46:33;;;;;;;47.67;34.23;;;-6.80;99.90;;;;;;5094443;28;20565;-63
2024/01/11 08:48:59;;;;;;;44.03;31.20;;;-6.70;99.90;;;;;;5094507;28;20165;-63
2024/01/11 08:51:25;;;;;;;45.43;31.33;;;-6.60;99.90;;;;;;5094014;28;20684;-63
2024/01/11 08:53:52;;;;;;;42.80;29.83;;;-6.60;99.90;;;;;;5094338;28;20197;-63
2024/01/11 08:56:19;;;;;;;44.03;30.80;;;-6.50;99.90;;;;;;5094832;28;20218;-63
2024/01/11 08:58:44;;;;;;;45.07;32.30;;;-6.50;99.90;;;;;;5094266;28;20181;-63
2024/01/11 09:01:11;;;;;;;45.73;30.13;;;-6.40;99.90;;;;;;5094138;28;20177;-63
2024/01/11 09:03:37;;;;;;;41.80;28.97;;;-6.30;99.90;;;;;;5094479;28;20165;-63
2024/01/11 09:06:03;;;;;;;42.40;30.67;;;-6.30;99.90;;;;;;5094298;28;20234;-63
2024/01/11 09:08:32;;;;;;;56.57;35.10;;;-6.20;99.90;;;;;;5094198;28;20193;-64
2024/01/11 09:10:59;;;;;;;46.23;30.60;;;-6.20;99.90;;;;;;5094049;28;20169;-63
2024/01/11 09:13:28;;;;;;;43.77;30.37;;;-6.10;99.90;;;;;;5092743;28;20204;-63
2024/01/11 09:15:54;;;;;;;45.47;30.00;;;-6.00;99.90;;;;;;5093901;28;20173;-64
2024/01/11 09:18:21;;;;;;;49.63;30.73;;;-6.00;99.90;;;;;;5093859;28;20212;-63
2024/01/11 09:20:47;;;;;;;40.47;29.17;;;-6.00;99.90;;;;;;5093894;28;20166;-64
2024/01/11 09:23:13;;;;;;;37.17;30.40;;;-5.90;99.90;;;;;;5092637;28;20169;-64
2024/01/11 09:25:39;;;;;;;45.67;29.40;;;-5.90;99.90;;;;;;5094189;28;20172;-63
2024/01/11 09:28:06;;;;;;;39.60;28.07;;;-5.90;99.90;;;;;;5093613;28;20682;-63
2024/01/11 09:30:32;;;;;;;42.17;30.60;;;-5.80;99.90;;;;;;5093995;28;20173;-64
2024/01/11 09:32:57;;;;;;;47.53;30.23;;;-5.70;99.90;;;;;;5093875;28;20669;-63
2024/01/11 09:35:23;;;;;;;43.20;29.57;;;-5.60;99.90;;;;;;5092758;28;20180;-64
2024/01/11 09:37:52;;;;;;;44.83;28.10;;;-5.60;99.90;;;;;;5093601;28;20200;-64
2024/01/11 09:40:18;;;;;;;37.33;29.43;;;-5.50;99.90;;;;;;5093876;28;20578;-63
2024/01/11 09:42:44;;;;;;;44.70;30.77;;;-5.40;99.90;;;;;;5094144;28;20225;-64
2024/01/11 09:45:13;;;;;;;45.83;29.90;;;-5.30;99.90;;;;;;5094251;28;20173;-63
2024/01/11 09:47:40;;;;;;;47.33;30.97;;;-5.30;99.90;;;;;;5093800;28;20209;-64
2024/01/11 09:50:07;;;;;;;45.97;29.77;;;-5.20;99.90;;;;;;5091925;28;20177;-64
2024/01/11 09:52:33;;;;;;;42.00;30.43;;;-5.10;99.90;;;;;;5093217;28;20204;-63
2024/01/11 09:55:01;;;;;;;44.00;30.83;;;-5.00;99.90;;;;;;5093678;28;20211;-63
2024/01/11 09:57:32;;;;;;;45.00;30.87;;;-4.80;99.90;;;;;;5093374;28;20259;-63
2024/01/11 09:59:58;;;;;;;46.33;31.17;;;-4.60;99.90;;;;;;5093358;28;20176;-63
2024/01/11 10:02:26;;;;;;;42.87;30.67;;;-4.40;99.90;;;;;;5093687;28;20188;-63
2024/01/11 10:04:52;;;;;;;44.37;32.93;;;-4.30;99.90;;;;;;5092072;28;20177;-63
2024/01/11 10:07:21;;;;;;;43.50;31.57;;;-4.20;99.90;;;;;;5092032;28;20571;-63
2024/01/11 10:09:47;;;;;;;46.60;31.40;;;-4.00;99.90;;;;;;5093199;28;20183;-63
2024/01/11 10:12:13;;;;;;;49.57;32.20;;;-3.90;99.90;;;;;;5093407;28;20300;-64
2024/01/11 10:14:39;;;;;;;46.90;32.53;;;-3.80;99.90;;;;;;5093309;28;20173;-63
2024/01/11 10:17:06;;;;;;;46.43;31.50;;;-3.70;99.90;;;;;;5093288;28;20563;-63
2024/01/11 10:19:32;;;;;;;47.83;32.27;;;-3.60;99.90;;;;;;5093118;28;20180;-63
2024/01/11 10:22:01;;;;;;;42.47;31.40;;;-3.40;99.90;;;;;;5093048;28;20162;-63
2024/01/11 10:24:28;;;;;;;46.77;33.37;;;-3.30;99.90;;;;;;5093233;28;20180;-63
2024/01/11 10:26:59;;;;;;;48.43;34.20;;;-3.20;99.90;;;;;;5091744;28;20193;-63
2024/01/11 10:29:30;;;;;;;46.10;31.47;;;-3.10;99.90;;;;;;5093080;28;20228;-63
2024/01/11 10:31:56;;;;;;;51.37;34.17;;;-2.90;99.90;;;;;;5093551;28;20638;-63
2024/01/11 10:34:25;;;;;;;51.33;35.43;;;-2.80;99.90;;;;;;5093304;28;20184;-63
2024/01/11 10:36:51;;;;;;;43.83;32.83;;;-2.60;99.90;;;;;;5092674;28;20211;-64
2024/01/11 10:39:18;;;;;;;58.03;35.73;;;-2.50;99.90;;;;;;5093015;28;20169;-63
2024/01/11 10:41:49;;;;;;;52.30;37.70;;;-2.30;99.90;;;;;;5093013;28;20200;-63
2024/01/11 10:44:22;;;;;;;54.63;36.90;;;-2.10;99.90;;;;;;5093257;28;20162;-63
2024/01/11 10:46:50;;;;;;;55.57;37.17;;;-1.90;99.90;;;;;;5096075;28;20250;-63
2024/01/11 10:49:19;;;;;;;63.67;39.30;;;-1.80;99.90;;;;;;5096935;28;20638;-64
2024/01/11 10:52:15;;;;;;;56.50;36.77;;;-1.50;99.90;;;;;;5096614;28;20185;-63
2024/01/11 10:54:42;;;;;;;52.27;35.73;;;-1.40;99.90;;;;;;5083784;28;20199;-64
2024/01/11 10:57:09;;;;;;;47.77;35.37;;;-1.20;99.90;;;;;;5096702;28;20670;-63
2024/01/11 10:59:37;;;;;;;48.40;35.13;;;-1.10;99.90;;;;;;5097334;28;20165;-64
2024/01/11 11:02:06;;;;;;;50.43;36.80;;;-0.90;99.90;;;;;;5097077;28;20173;-63
2024/01/11 11:04:34;;;;;;;54.30;35.97;;;-0.90;99.90;;;;;;5096744;28;20169;-64
2024/01/11 11:07:02;;;;;;;54.90;37.23;;;-0.80;99.90;;;;;;5096187;28;20189;-64
2024/01/11 11:09:29;;;;;;;59.27;37.23;;;-0.70;99.90;;;;;;5096532;28;20646;-63
2024/01/11 11:11:58;;;;;;;52.73;35.77;;;-0.50;99.90;;;;;;5096336;28;20184;-64
2024/01/11 11:14:25;;;;;;;55.77;35.37;;;-0.40;99.90;;;;;;5096368;28;20646;-64
2024/01/11 11:16:52;;;;;;;50.50;35.93;;;-0.30;89.80;;;;;;5096200;28;20230;-63
2024/01/11 11:19:20;;;;;;;45.93;33.90;;;-0.20;87.90;;;;;;5096699;28;20253;-63
2024/01/11 11:21:48;;;;;;;49.17;35.17;;;-0.10;58.40;;;;;;5096023;28;20260;-63
2024/01/11 11:24:16;;;;;;;54.07;34.67;;;0.10;54.60;;;;;;5096256;28;20188;-64
2024/01/11 11:26:42;;;;;;;50.87;35.10;;;0.10;49.00;;;;;;5096419;28;20189;-63
2024/01/11 11:29:09;;;;;;;55.97;35.60;;;0.30;53.20;;;;;;5096440;28;20514;-63
2024/01/11 11:31:47;;;;;;;54.90;34.90;;;0.50;18.20;;;;;;5096082;28;20175;-64
2024/01/11 11:34:14;;;;;;;51.13;32.87;;;0.70;19.80;;;;;;5096332;28;20200;-63
2024/01/11 11:36:46;;;;;;;53.50;34.60;;;0.80;1.00;;;;;;5095710;28;20193;-63
2024/01/11 11:39:13;;;;;;;48.10;34.40;;;1.10;1.00;;;;;;5096398;28;20541;-63
2024/01/11 11:41:39;;;;;;;47.53;32.30;;;1.10;1.00;;;;;;5096220;28;20204;-64
2024/01/11 11:44:05;;;;;;;52.07;32.63;;;1.10;1.00;;;;;;5096136;28;20177;-64
2024/01/11 11:46:34;;;;;;;46.77;32.13;;;1.30;1.00;;;;;;5095994;28;20197;-63
2024/01/11 11:49:00;;;;;;;47.80;32.57;;;1.20;1.00;;;;;;5095966;28;20185;-64
2024/01/11 11:51:27;;;;;;;53.23;36.80;;;1.40;1.00;;;;;;5095356;28;20192;-64
2024/01/11 11:53:54;;;;;;;45.97;33.33;;;1.50;1.00;;;;;;5095535;28;20197;-63
2024/01/11 11:56:21;;;;;;;51.53;33.37;;;1.60;1.00;;;;;;5095441;28;20760;-64
2024/01/11 11:58:49;;;;;;;46.30;31.97;;;1.70;1.00;;;;;;5094883;28;20187;-64
2024/01/11 12:01:17;;;;;;;49.80;33.33;;;1.80;1.00;;;;;;5094916;28;20178;-64
2024/01/11 12:03:48;;;;;;;44.93;32.90;;;1.90;1.00;;;;;;5095705;28;20188;-64
2024/01/11 12:06:19;;;;;;;50.37;34.30;;;2.10;1.00;;;;;;5093739;28;20649;-64
2024/01/11 12:08:46;;;;;;;43.33;31.60;;;2.20;1.00;;;;;;5095322;28;20713;-64
2024/01/11 12:11:19;;;;;;;44.13;32.60;;;2.30;1.00;;;;;;5095224;28;20181;-63
2024/01/11 12:13:49;;;;;;;48.50;32.40;;;2.40;1.00;;;;;;5095151;28;20224;-64
2024/01/11 12:16:15;;;;;;;49.70;33.73;;;2.60;1.00;;;;;;5095066;28;20177;-64
2024/01/11 12:18:41;;;;;;;51.47;34.70;;;2.70;1.00;;;;;;5095097;28;20661;-64
2024/01/11 12:21:08;;;;;;;49.40;34.37;;;2.50;1.00;;;;;;5094842;28;20548;-64
2024/01/11 12:23:35;;;;;;;52.23;33.80;;;2.30;1.00;;;;;;5094992;28;20226;-64